Time;durP1;ratioP1;P1;durP2;ratioP2;P2;SDS_P1;SDS_P2;PMS_P1;PMS_P2;Temp;Humidity;BMP_temperature;BMP_pressure;BME280_temperature;BME280_humidity;BME280_pressure;Samples;Min_cycle;Max_cycle;Signal;HPM_P1;HPM_P2
2021/10/25 00:00:54;;;;;;;8.93;8.02;;;4.70;99.90;;;;;;5070778;28;20196;-69
2021/10/25 00:03:21;;;;;;;10.63;6.95;;;4.70;99.90;;;;;;5070587;28;20188;-70
2021/10/25 00:05:48;;;;;;;8.77;7.22;;;4.70;99.90;;;;;;5070488;28;20209;-69
2021/10/25 00:08:14;;;;;;;9.88;7.05;;;4.70;99.90;;;;;;5070976;28;20660;-69
2021/10/25 00:10:45;;;;;;;8.45;6.95;;;4.70;99.90;;;;;;5071193;28;20192;-69
2021/10/25 00:13:12;;;;;;;10.93;7.32;;;4.70;99.90;;;;;;5071159;28;20250;-69
2021/10/25 00:15:39;;;;;;;9.55;7.28;;;4.60;99.90;;;;;;5070632;28;20208;-69
2021/10/25 00:18:06;;;;;;;8.55;7.20;;;4.60;99.90;;;;;;5070517;28;20567;-69
2021/10/25 00:20:34;;;;;;;9.48;7.40;;;4.50;99.90;;;;;;5070208;28;20214;-69
2021/10/25 00:23:01;;;;;;;7.68;6.22;;;4.50;99.90;;;;;;5071880;28;20204;-69
2021/10/25 00:25:28;;;;;;;12.52;7.43;;;4.40;99.90;;;;;;5071876;28;20232;-69
2021/10/25 00:27:56;;;;;;;10.05;7.70;;;4.40;99.90;;;;;;5070475;28;20219;-69
2021/10/25 00:30:22;;;;;;;9.15;6.80;;;4.30;99.90;;;;;;5071865;28;20207;-69
2021/10/25 00:32:49;;;;;;;8.57;6.93;;;4.30;99.90;;;;;;5071462;28;20223;-69
2021/10/25 00:35:16;;;;;;;7.78;6.85;;;4.40;99.90;;;;;;5071417;28;20740;-69
2021/10/25 00:37:43;;;;;;;7.00;6.30;;;4.30;99.90;;;;;;5071464;28;20221;-69
2021/10/25 00:40:10;;;;;;;8.43;7.38;;;4.30;99.90;;;;;;5071004;28;20208;-69
2021/10/25 00:42:37;;;;;;;8.68;6.80;;;4.30;99.90;;;;;;5071780;28;20200;-69
2021/10/25 00:45:07;;;;;;;8.15;7.38;;;4.30;99.90;;;;;;5070953;28;20598;-69
2021/10/25 00:47:34;;;;;;;9.63;6.95;;;4.30;99.90;;;;;;5071028;28;20203;-69
2021/10/25 00:50:01;;;;;;;9.38;7.05;;;4.30;99.90;;;;;;5071181;28;20200;-69
2021/10/25 00:52:29;;;;;;;7.90;6.65;;;4.30;99.90;;;;;;5071224;28;20196;-69
2021/10/25 00:54:56;;;;;;;10.15;7.40;;;4.20;99.90;;;;;;5071013;28;20211;-69
2021/10/25 00:57:23;;;;;;;9.90;7.72;;;4.20;99.90;;;;;;5070973;28;20228;-69
2021/10/25 00:59:49;;;;;;;10.23;9.23;;;4.20;99.90;;;;;;5070962;28;20234;-69
2021/10/25 01:02:17;;;;;;;8.50;7.07;;;4.20;99.90;;;;;;5071366;28;20200;-69
2021/10/25 01:04:44;;;;;;;8.70;7.28;;;4.10;99.90;;;;;;5070881;28;20212;-69
2021/10/25 01:07:12;;;;;;;8.18;7.15;;;4.10;99.90;;;;;;5071261;28;20266;-69
2021/10/25 01:09:40;;;;;;;7.47;6.72;;;4.10;99.90;;;;;;5070260;28;20207;-69
2021/10/25 01:12:07;;;;;;;7.20;6.45;;;4.10;99.90;;;;;;5070634;28;20644;-69
2021/10/25 01:14:34;;;;;;;8.00;7.10;;;4.10;99.90;;;;;;5071877;28;20207;-69
2021/10/25 01:17:01;;;;;;;9.00;7.22;;;4.10;99.90;;;;;;5070352;28;20223;-69
2021/10/25 01:19:29;;;;;;;9.77;7.60;;;4.00;99.90;;;;;;5071886;28;20204;-69
2021/10/25 01:21:57;;;;;;;9.73;7.75;;;4.10;99.90;;;;;;5071575;28;20204;-69
2021/10/25 01:24:24;;;;;;;9.10;7.45;;;4.00;99.90;;;;;;5071412;28;20206;-69
2021/10/25 01:26:51;;;;;;;9.77;7.82;;;4.00;99.90;;;;;;5071015;28;20772;-69
2021/10/25 01:29:19;;;;;;;7.80;7.00;;;4.00;99.90;;;;;;5071319;28;20216;-69
2021/10/25 01:31:47;;;;;;;9.68;7.57;;;4.00;99.90;;;;;;5071599;28;20200;-69
2021/10/25 01:34:15;;;;;;;9.52;7.60;;;4.00;99.90;;;;;;5070215;28;20216;-69
2021/10/25 01:36:42;;;;;;;8.68;7.05;;;4.00;99.90;;;;;;5070774;28;20255;-69
2021/10/25 01:39:10;;;;;;;8.63;7.40;;;4.00;99.90;;;;;;5071037;28;20211;-69
2021/10/25 01:41:37;;;;;;;7.82;6.82;;;4.00;99.90;;;;;;5070680;28;20200;-69
2021/10/25 01:44:09;;;;;;;7.72;6.88;;;4.00;99.90;;;;;;5070406;28;20203;-69
2021/10/25 01:46:36;;;;;;;7.90;6.70;;;4.00;99.90;;;;;;5070653;28;20320;-69
2021/10/25 01:49:05;;;;;;;7.93;7.13;;;4.00;99.90;;;;;;5071105;28;20203;-69
2021/10/25 01:51:32;;;;;;;9.13;7.10;;;4.00;99.90;;;;;;5070812;28;20240;-69
2021/10/25 01:53:59;;;;;;;9.57;7.07;;;4.00;99.90;;;;;;5070939;28;20726;-69
2021/10/25 01:56:27;;;;;;;7.85;7.05;;;4.00;99.90;;;;;;5070248;28;20231;-69
2021/10/25 01:58:54;;;;;;;8.48;6.93;;;3.90;99.90;;;;;;5070933;28;20227;-69
2021/10/25 02:01:23;;;;;;;9.18;8.27;;;3.90;99.90;;;;;;5070841;28;20205;-68
2021/10/25 02:03:49;;;;;;;7.28;6.53;;;3.80;99.90;;;;;;5070771;28;20691;-68
2021/10/25 02:06:17;;;;;;;8.13;6.72;;;3.80;99.90;;;;;;5070079;28;20232;-69
2021/10/25 02:08:44;;;;;;;7.18;5.90;;;3.80;99.90;;;;;;5070609;28;20208;-69
2021/10/25 02:11:10;;;;;;;9.75;7.45;;;3.70;99.90;;;;;;5070610;28;20575;-68
2021/10/25 02:13:38;;;;;;;7.10;5.90;;;3.70;99.90;;;;;;5070554;28;20200;-69
2021/10/25 02:16:06;;;;;;;13.30;7.57;;;3.70;99.90;;;;;;5070142;28;20254;-68
2021/10/25 02:18:32;;;;;;;7.53;6.70;;;3.60;99.90;;;;;;5070187;28;20315;-68
2021/10/25 02:20:59;;;;;;;9.82;7.20;;;3.70;99.90;;;;;;5070168;28;20200;-68
2021/10/25 02:23:26;;;;;;;8.10;7.30;;;3.60;99.90;;;;;;5070265;28;20615;-68
2021/10/25 02:25:53;;;;;;;8.95;7.80;;;3.60;99.90;;;;;;5069814;28;20310;-68
2021/10/25 02:28:20;;;;;;;7.45;6.65;;;3.60;99.90;;;;;;5070479;28;20290;-68
2021/10/25 02:30:49;;;;;;;9.18;7.63;;;3.60;99.90;;;;;;5070444;28;20200;-68
2021/10/25 02:33:16;;;;;;;8.70;7.78;;;3.60;99.90;;;;;;5070470;28;20207;-68
2021/10/25 02:35:42;;;;;;;7.90;7.10;;;3.60;99.90;;;;;;5070348;28;20267;-69
2021/10/25 02:38:09;;;;;;;7.75;6.57;;;3.50;99.90;;;;;;5069995;28;20220;-68
2021/10/25 02:40:36;;;;;;;10.85;7.20;;;3.50;99.90;;;;;;5070552;28;20208;-68
2021/10/25 02:43:03;;;;;;;8.63;7.45;;;3.50;99.90;;;;;;5070096;28;20212;-69
2021/10/25 02:45:30;;;;;;;8.13;6.45;;;3.50;99.90;;;;;;5070293;28;20224;-68
2021/10/25 02:47:58;;;;;;;7.75;6.95;;;3.50;99.90;;;;;;5069767;28;20200;-68
2021/10/25 02:50:25;;;;;;;9.38;6.40;;;3.50;99.90;;;;;;5070022;28;20243;-68
2021/10/25 02:52:51;;;;;;;7.40;6.53;;;3.50;99.90;;;;;;5069871;28;20227;-68
2021/10/25 02:55:18;;;;;;;8.70;6.85;;;3.50;99.90;;;;;;5069571;28;20216;-68
2021/10/25 02:57:45;;;;;;;7.82;7.07;;;3.40;99.90;;;;;;5069761;28;20216;-68
2021/10/25 03:00:15;;;;;;;7.03;6.25;;;3.50;99.90;;;;;;5069963;28;20655;-68
2021/10/25 03:02:44;;;;;;;7.30;6.60;;;3.40;99.90;;;;;;5069993;28;20219;-69
2021/10/25 03:05:12;;;;;;;7.63;6.50;;;3.40;99.90;;;;;;5069892;28;20648;-68
2021/10/25 03:07:39;;;;;;;8.32;7.15;;;3.40;99.90;;;;;;5069312;28;20655;-69
2021/10/25 03:10:08;;;;;;;8.35;7.25;;;3.40;99.90;;;;;;5070123;28;20204;-68
2021/10/25 03:12:35;;;;;;;9.45;7.05;;;3.40;99.90;;;;;;5069781;28;20295;-68
2021/10/25 03:15:01;;;;;;;8.70;7.00;;;3.40;99.90;;;;;;5069960;28;21563;-68
2021/10/25 03:17:28;;;;;;;7.43;6.72;;;3.40;99.90;;;;;;5069846;28;20952;-68
2021/10/25 03:19:55;;;;;;;8.45;7.00;;;3.40;99.90;;;;;;5070168;28;20208;-68
2021/10/25 03:22:25;;;;;;;7.50;6.13;;;3.40;99.90;;;;;;5070147;28;20222;-68
2021/10/25 03:24:51;;;;;;;9.02;7.10;;;3.40;99.90;;;;;;5070064;28;20196;-68
2021/10/25 03:27:18;;;;;;;10.30;6.93;;;3.40;99.90;;;;;;5069765;28;20207;-69
2021/10/25 03:29:45;;;;;;;8.05;6.00;;;3.40;99.90;;;;;;5070167;28;20315;-69
2021/10/25 03:32:12;;;;;;;10.05;6.82;;;3.40;99.90;;;;;;5069990;28;20686;-69
2021/10/25 03:34:39;;;;;;;7.40;6.38;;;3.40;99.90;;;;;;5070248;28;20200;-68
2021/10/25 03:37:06;;;;;;;8.25;6.50;;;3.40;99.90;;;;;;5068672;28;20216;-69
2021/10/25 03:39:37;;;;;;;7.60;6.85;;;3.40;99.90;;;;;;5069185;28;20228;-69
2021/10/25 03:42:08;;;;;;;7.38;6.15;;;3.30;99.90;;;;;;5069020;28;20250;-69
2021/10/25 03:44:41;;;;;;;11.40;7.50;;;3.30;99.90;;;;;;5067471;28;20250;-68
2021/10/25 03:47:13;;;;;;;6.97;6.00;;;3.30;99.90;;;;;;5068737;28;20559;-69
2021/10/25 03:49:44;;;;;;;10.00;6.80;;;3.30;99.90;;;;;;5070058;28;20700;-69
2021/10/25 03:52:17;;;;;;;8.40;7.60;;;3.30;99.90;;;;;;5066782;28;20196;-68
2021/10/25 03:54:49;;;;;;;6.40;5.80;;;3.30;99.90;;;;;;5070811;28;20227;-68
2021/10/25 03:57:37;;;;;;;7.30;6.18;;;3.30;99.90;;;;;;5069696;28;20619;-69
2021/10/25 04:03:12;;;;;;;7.05;5.85;;;3.30;99.90;;;;;;5038677;28;20191;-69
2021/10/25 04:25:43;;;;;;;8.75;6.65;;;3.10;99.90;;;;;;5032003;28;20244;-75
2021/10/25 04:28:12;;;;;;;7.82;6.10;;;3.10;99.90;;;;;;5029278;28;20453;-75
2021/10/25 04:30:40;;;;;;;7.15;6.43;;;3.00;99.90;;;;;;5031711;28;20212;-75
2021/10/25 04:33:07;;;;;;;8.57;5.97;;;3.00;99.90;;;;;;5032978;28;20327;-74
2021/10/25 04:35:34;;;;;;;7.72;6.93;;;3.00;99.90;;;;;;5031558;28;20222;-75
2021/10/25 04:38:02;;;;;;;8.48;7.53;;;3.00;99.90;;;;;;5032089;28;20225;-75
2021/10/25 04:40:29;;;;;;;8.55;7.03;;;3.00;99.90;;;;;;5032808;28;20229;-75
2021/10/25 04:42:56;;;;;;;7.95;6.32;;;3.10;99.90;;;;;;5032942;28;20236;-75
2021/10/25 04:45:25;;;;;;;9.70;6.93;;;3.10;99.90;;;;;;5032222;28;20659;-75
2021/10/25 04:47:54;;;;;;;8.27;6.80;;;3.10;99.90;;;;;;5032414;28;20259;-75
2021/10/25 04:50:21;;;;;;;8.07;6.75;;;3.10;99.90;;;;;;5032559;28;20204;-75
2021/10/25 04:52:48;;;;;;;7.53;6.82;;;3.10;99.90;;;;;;5032745;28;20296;-75
2021/10/25 04:55:15;;;;;;;6.88;6.28;;;3.10;99.90;;;;;;5032517;28;20713;-75
2021/10/25 04:57:42;;;;;;;7.78;6.93;;;3.00;99.90;;;;;;5031798;28;20323;-75
2021/10/25 05:00:10;;;;;;;10.75;7.38;;;3.00;99.90;;;;;;5032612;28;20205;-75
2021/10/25 05:02:39;;;;;;;7.80;7.00;;;3.00;99.90;;;;;;5032073;28;20209;-75
2021/10/25 05:05:06;;;;;;;9.45;7.15;;;3.00;99.90;;;;;;5032593;28;20222;-75
2021/10/25 05:07:34;;;;;;;7.07;6.30;;;3.00;99.90;;;;;;5031693;28;20210;-75
2021/10/25 05:10:02;;;;;;;8.25;6.60;;;3.00;99.90;;;;;;5032609;28;20577;-74
2021/10/25 05:12:29;;;;;;;8.18;6.68;;;3.00;99.90;;;;;;5032141;28;20645;-75
2021/10/25 05:14:56;;;;;;;8.75;7.45;;;3.00;99.90;;;;;;5031931;28;20197;-75
2021/10/25 05:17:23;;;;;;;9.98;7.70;;;3.10;99.90;;;;;;5031942;28;20206;-75
2021/10/25 05:19:52;;;;;;;9.52;8.55;;;3.10;99.90;;;;;;5031979;28;20232;-75
2021/10/25 05:22:19;;;;;;;10.15;7.60;;;3.20;99.90;;;;;;5032006;28;20672;-75
2021/10/25 05:24:46;;;;;;;8.40;6.80;;;3.20;99.90;;;;;;5031798;28;20665;-75
2021/10/25 05:27:15;;;;;;;9.98;7.72;;;3.20;99.90;;;;;;5031226;28;20212;-75
2021/10/25 05:29:41;;;;;;;8.00;7.20;;;3.10;99.90;;;;;;5031996;28;20198;-75
2021/10/25 05:32:09;;;;;;;8.00;7.20;;;3.20;99.90;;;;;;5031725;28;20202;-75
2021/10/25 05:34:36;;;;;;;8.48;7.32;;;3.20;99.90;;;;;;5031732;28;20205;-75
2021/10/25 05:37:04;;;;;;;9.25;7.60;;;3.10;99.90;;;;;;5031180;28;20705;-75
2021/10/25 05:39:32;;;;;;;8.05;7.25;;;3.10;99.90;;;;;;5031598;28;20226;-75
2021/10/25 05:42:01;;;;;;;9.77;8.00;;;3.00;99.90;;;;;;5031822;28;20202;-75
2021/10/25 05:44:29;;;;;;;9.32;7.30;;;2.90;99.90;;;;;;5031251;28;20229;-75
2021/10/25 05:46:56;;;;;;;8.48;6.72;;;2.90;99.90;;;;;;5030831;28;20709;-74
2021/10/25 05:49:23;;;;;;;14.98;8.43;;;2.90;99.90;;;;;;5031149;28;20198;-74
2021/10/25 05:51:50;;;;;;;10.57;6.95;;;2.80;99.90;;;;;;5031370;28;20209;-74
2021/10/25 05:54:18;;;;;;;8.13;7.32;;;2.80;99.90;;;;;;5031508;28;20210;-74
2021/10/25 05:56:46;;;;;;;11.82;6.60;;;2.80;99.90;;;;;;5030457;28;20860;-75
2021/10/25 05:59:13;;;;;;;9.70;7.55;;;2.70;99.90;;;;;;5031208;28;20217;-74
2021/10/25 06:01:42;;;;;;;8.35;7.45;;;2.70;99.90;;;;;;5030687;28;20666;-74
2021/10/25 06:04:10;;;;;;;9.35;7.60;;;2.70;99.90;;;;;;5031630;28;20202;-75
2021/10/25 06:06:37;;;;;;;7.82;6.70;;;2.70;99.90;;;;;;5030342;28;20350;-74
2021/10/25 06:09:05;;;;;;;8.82;7.47;;;2.70;99.90;;;;;;5031240;28;20208;-75
2021/10/25 06:11:35;;;;;;;8.80;7.90;;;2.80;99.90;;;;;;5030554;28;20221;-74
2021/10/25 06:14:04;;;;;;;7.35;6.65;;;2.70;99.90;;;;;;5030995;28;20205;-74
2021/10/25 06:16:38;;;;;;;8.73;7.28;;;2.70;99.90;;;;;;5030120;28;20709;-74
2021/10/25 06:19:06;;;;;;;8.45;7.55;;;2.70;99.90;;;;;;5030334;28;20647;-74
2021/10/25 06:21:32;;;;;;;10.60;7.63;;;2.70;99.90;;;;;;5029886;28;20205;-75
2021/10/25 06:24:00;;;;;;;11.23;7.53;;;2.80;99.90;;;;;;5030408;28;20198;-74
2021/10/25 06:26:27;;;;;;;8.48;7.30;;;2.70;99.90;;;;;;5029787;28;20222;-75
2021/10/25 06:28:55;;;;;;;10.73;7.72;;;2.80;99.90;;;;;;5030692;28;20547;-74
2021/10/25 06:31:22;;;;;;;8.38;5.68;;;2.80;99.90;;;;;;5030682;28;20205;-75
2021/10/25 06:33:49;;;;;;;11.57;7.97;;;2.80;99.90;;;;;;5030471;28;20301;-75
2021/10/25 06:36:18;;;;;;;9.73;7.60;;;2.80;99.90;;;;;;5029640;28;20214;-75
2021/10/25 06:38:52;;;;;;;8.60;6.93;;;2.80;99.90;;;;;;5030194;28;20221;-75
2021/10/25 06:41:20;;;;;;;7.65;6.63;;;2.80;99.90;;;;;;5026984;28;20248;-75
2021/10/25 06:43:47;;;;;;;8.88;6.78;;;2.80;99.90;;;;;;5028527;28;20194;-75
2021/10/25 06:46:15;;;;;;;10.50;8.13;;;2.80;99.90;;;;;;5029251;28;20247;-75
2021/10/25 06:48:43;;;;;;;10.35;7.10;;;2.80;99.90;;;;;;5030342;28;20578;-75
2021/10/25 06:51:09;;;;;;;10.25;7.82;;;2.90;99.90;;;;;;5031949;28;20288;-75
2021/10/25 06:53:36;;;;;;;7.72;6.93;;;3.00;99.90;;;;;;5030472;28;20695;-75
2021/10/25 06:56:03;;;;;;;10.02;8.30;;;3.00;99.90;;;;;;5029986;28;20244;-75
2021/10/25 06:58:30;;;;;;;12.18;8.30;;;3.00;99.90;;;;;;5029584;28;20209;-75
2021/10/25 07:00:58;;;;;;;8.50;7.60;;;3.00;99.90;;;;;;5030236;28;20190;-74
2021/10/25 07:03:27;;;;;;;7.82;7.00;;;3.00;99.90;;;;;;5027146;28;20209;-74
2021/10/25 07:05:54;;;;;;;13.80;7.60;;;3.10;99.90;;;;;;5029517;28;20213;-74
2021/10/25 07:08:21;;;;;;;10.77;7.72;;;3.10;99.90;;;;;;5028913;28;20201;-75
2021/10/25 07:10:48;;;;;;;13.15;7.95;;;3.20;99.90;;;;;;5030393;28;20232;-75
2021/10/25 07:13:15;;;;;;;10.40;7.07;;;3.20;99.90;;;;;;5028472;28;20194;-75
2021/10/25 07:15:46;;;;;;;7.85;7.15;;;3.40;99.90;;;;;;5029778;28;20221;-75
2021/10/25 07:18:17;;;;;;;9.90;7.30;;;3.70;99.90;;;;;;5030324;28;20544;-75
2021/10/25 07:21:01;;;;;;;7.97;7.18;;;4.00;99.90;;;;;;5030008;28;20699;-75
2021/10/25 08:05:18;;;;;;;11.55;7.35;;;7.30;99.90;;;;;;4957822;28;20231;-74
2021/10/25 08:07:51;;;;;;;14.18;7.53;;;7.70;99.90;;;;;;5017851;28;20344;-74
2021/10/25 08:10:23;;;;;;;10.05;7.22;;;8.20;99.90;;;;;;5049937;28;20193;-74
2021/10/25 08:12:53;;;;;;;10.13;7.22;;;8.20;99.90;;;;;;5052083;28;20197;-75
2021/10/25 08:15:26;;;;;;;8.45;7.55;;;8.30;99.90;;;;;;5033435;28;20229;-74
2021/10/25 08:17:56;;;;;;;8.18;7.20;;;8.30;99.90;;;;;;5050508;28;20263;-77
2021/10/25 08:20:23;;;;;;;7.78;6.22;;;8.30;99.90;;;;;;5051931;28;20225;-77
2021/10/25 08:22:50;;;;;;;10.80;7.28;;;8.30;99.90;;;;;;5052185;28;20205;-77
2021/10/25 08:25:17;;;;;;;9.50;6.75;;;8.30;99.90;;;;;;5051595;28;20221;-77
2021/10/25 08:27:45;;;;;;;8.20;6.50;;;8.40;99.90;;;;;;5051391;28;20292;-76
2021/10/25 08:30:17;;;;;;;8.30;6.50;;;8.40;99.90;;;;;;5046594;28;21184;-77
2021/10/25 08:33:00;;;;;;;7.97;6.40;;;8.40;99.90;;;;;;5032043;28;20205;-77
2021/10/25 08:35:35;;;;;;;6.35;5.75;;;8.40;99.90;;;;;;5031944;28;20226;-76
2021/10/25 08:40:46;;;;;;;10.43;6.60;;;8.50;99.90;;;;;;5032180;28;20228;-76
2021/10/25 08:43:15;;;;;;;8.45;5.90;;;8.60;99.90;;;;;;5032308;28;20205;-77
2021/10/25 08:45:46;;;;;;;8.18;6.25;;;8.70;99.90;;;;;;5051482;28;20232;-76
2021/10/25 08:48:12;;;;;;;9.93;6.32;;;8.80;99.90;;;;;;5051839;28;20665;-77
2021/10/25 08:50:39;;;;;;;6.30;5.70;;;8.80;99.90;;;;;;5051397;28;20203;-75
2021/10/25 08:53:09;;;;;;;9.90;7.05;;;8.90;99.90;;;;;;5044047;28;20202;-75
2021/10/25 08:55:36;;;;;;;6.85;6.05;;;9.00;99.90;;;;;;5031285;28;20305;-75
2021/10/25 08:58:05;;;;;;;6.30;5.53;;;9.10;99.90;;;;;;5031779;28;20221;-75
2021/10/25 09:00:39;;;;;;;6.03;5.43;;;9.10;99.90;;;;;;5031257;28;20253;-77
2021/10/25 09:03:06;;;;;;;6.00;5.40;;;9.20;99.90;;;;;;5032422;28;20201;-76
2021/10/25 09:05:34;;;;;;;5.28;4.60;;;9.30;99.90;;;;;;5031866;28;20222;-74
2021/10/25 09:08:04;;;;;;;6.20;5.10;;;9.40;99.90;;;;;;5031420;28;20243;-76
2021/10/25 09:10:33;;;;;;;8.48;6.45;;;9.50;99.90;;;;;;5032226;28;20280;-76
2021/10/25 09:13:02;;;;;;;20.40;7.38;;;9.50;99.90;;;;;;5031007;28;20673;-76
2021/10/25 09:15:31;;;;;;;11.07;7.13;;;9.50;99.90;;;;;;5031468;28;20324;-76
2021/10/25 09:18:06;;;;;;;7.80;7.00;;;9.50;99.90;;;;;;5030816;28;20237;-76
2021/10/25 09:20:41;;;;;;;17.10;9.15;;;9.60;99.90;;;;;;5030447;28;20221;-76
2021/10/25 09:23:09;;;;;;;12.70;7.25;;;9.70;99.90;;;;;;5032205;28;20209;-76
2021/10/25 09:25:37;;;;;;;10.95;5.90;;;9.80;99.90;;;;;;5029229;28;20751;-76
2021/10/25 09:28:13;;;;;;;6.78;6.07;;;10.10;99.90;;;;;;5031510;28;20244;-76
2021/10/25 09:30:45;;;;;;;12.30;7.97;;;10.50;99.90;;;;;;5031436;28;20255;-76
2021/10/25 09:33:19;;;;;;;11.68;7.57;;;10.80;99.90;;;;;;5031809;28;20206;-76
2021/10/25 09:35:48;;;;;;;9.05;6.88;;;11.00;99.90;;;;;;5030910;28;20248;-76
2021/10/25 09:38:21;;;;;;;8.88;6.50;;;11.30;99.90;;;;;;5031942;28;20198;-77
2021/10/25 09:46:35;;;;;;;3.90;3.28;;;11.80;99.90;;;;;;5031044;28;20225;-76
2021/10/25 09:49:07;;;;;;;3.87;3.47;;;12.10;99.90;;;;;;5031853;28;20201;-77
2021/10/25 09:51:37;;;;;;;4.10;3.70;;;12.50;99.90;;;;;;5031337;28;20475;-77
2021/10/25 09:54:05;;;;;;;3.92;3.30;;;12.90;99.90;;;;;;5031483;28;20197;-77
2021/10/25 09:56:35;;;;;;;6.73;3.33;;;13.30;99.90;;;;;;5030637;28;20218;-76
2021/10/25 09:59:11;;;;;;;4.80;3.30;;;13.80;99.90;;;;;;5031241;28;20835;-76
2021/10/25 10:01:41;;;;;;;4.27;3.20;;;14.30;99.90;;;;;;5030544;28;21006;-76
2021/10/25 10:04:10;;;;;;;3.43;3.13;;;14.30;99.90;;;;;;5031181;28;20466;-77
2021/10/25 10:06:37;;;;;;;3.30;3.00;;;14.40;99.90;;;;;;5030599;28;20848;-76
2021/10/25 10:09:05;;;;;;;6.50;3.20;;;14.40;99.90;;;;;;5031153;28;20460;-76
2021/10/25 10:11:34;;;;;;;3.50;3.20;;;14.60;99.90;;;;;;5031094;28;20471;-77
2021/10/25 10:14:02;;;;;;;3.57;3.27;;;14.80;99.90;;;;;;5031311;28;20464;-76
2021/10/25 10:16:30;;;;;;;3.87;3.30;;;14.90;99.90;;;;;;5030308;28;20538;-76
2021/10/25 10:19:02;;;;;;;3.93;3.33;;;15.10;99.90;;;;;;5079667;22;20765;-89
2021/10/25 10:21:31;;;;;;;5.97;3.20;;;15.20;99.90;;;;;;5081634;28;20473;-89
2021/10/25 10:24:04;;;;;;;6.30;3.40;;;15.30;99.90;;;;;;5072706;28;20540;-90
2021/10/25 10:26:32;;;;;;;3.87;3.20;;;15.50;99.90;;;;;;5072799;28;20975;-89
2021/10/25 10:29:09;;;;;;;5.93;3.17;;;15.60;99.90;;;;;;5070558;28;20458;-90
2021/10/25 10:31:36;;;;;;;3.43;3.07;;;15.60;99.90;;;;;;5058317;28;20827;-90
2021/10/25 10:34:12;;;;;;;3.50;2.93;;;15.70;99.90;;;;;;5072689;28;20465;-89
2021/10/25 10:36:50;;;;;;;4.10;3.30;;;15.90;99.90;;;;;;5072323;28;20461;-89
2021/10/25 10:39:18;;;;;;;3.60;3.30;;;16.10;99.90;;;;;;5075074;28;20474;-91
2021/10/25 10:41:46;;;;;;;5.53;3.20;;;16.90;99.90;;;;;;5075938;28;20462;-92
2021/10/25 10:44:17;;;;;;;5.23;3.10;;;17.30;99.90;;;;;;5073131;28;20459;-92
2021/10/25 10:46:48;;;;;;;3.10;2.80;;;17.80;99.90;;;;;;5072327;28;20846;-89
2021/10/25 10:49:23;;;;;;;4.45;3.30;;;18.50;99.90;;;;;;5073174;28;20983;-93
2021/10/25 10:55:05;;;;;;;4.20;2.40;;;18.90;99.90;;;;;;5070174;28;20453;-92
2021/10/25 11:00:30;;;;;;;3.67;3.23;;;17.60;99.90;;;;;;5048472;28;20466;-91
2021/10/25 11:02:58;;;;;;;3.07;2.83;;;17.00;99.90;;;;;;5072895;28;20465;-92
2021/10/25 11:05:32;;;;;;;3.17;2.87;;;16.70;99.90;;;;;;5072654;28;20463;-93
2021/10/25 11:08:07;;;;;;;3.13;2.53;;;16.40;99.90;;;;;;5072942;28;20458;-92
2021/10/25 11:10:34;;;;;;;3.40;2.70;;;16.50;99.90;;;;;;5073413;28;20990;-92
2021/10/25 11:13:06;;;;;;;3.23;2.93;;;17.10;99.90;;;;;;5073709;28;20466;-93
2021/10/25 11:15:40;;;;;;;4.23;2.70;;;18.00;99.90;;;;;;5076790;28;20742;-93
2021/10/25 11:18:07;;;;;;;2.80;2.60;;;19.00;99.90;;;;;;5076656;28;20463;-92
2021/10/25 11:20:34;;;;;;;4.17;2.63;;;20.00;98.00;;;;;;5076990;28;20486;-93
2021/10/25 11:23:08;;;;;;;4.50;3.10;;;20.70;98.90;;;;;;5076772;28;20467;-92
2021/10/25 11:25:41;;;;;;;3.03;2.73;;;21.20;99.20;;;;;;5077135;28;20818;-93
2021/10/25 11:28:19;;;;;;;3.53;3.10;;;21.50;97.00;;;;;;5077350;28;20473;-93
2021/10/25 11:30:47;;;;;;;3.80;2.90;;;21.80;96.80;;;;;;5077433;28;20478;-93
2021/10/25 11:33:17;;;;;;;2.67;2.47;;;22.20;95.60;;;;;;5077630;28;20458;-92
2021/10/25 11:35:52;;;;;;;2.80;2.60;;;22.30;96.20;;;;;;5077520;28;20972;-94
2021/10/25 11:38:21;;;;;;;5.37;3.10;;;22.60;96.10;;;;;;5079868;28;20496;-93
2021/10/25 11:40:47;;;;;;;3.40;3.10;;;23.00;97.00;;;;;;5080397;28;20470;-92
2021/10/25 11:43:14;;;;;;;3.30;3.00;;;23.20;96.50;;;;;;5078365;28;20463;-93
2021/10/25 11:45:41;;;;;;;3.50;2.50;;;23.40;95.90;;;;;;5078741;28;20473;-93
2021/10/25 11:48:08;;;;;;;3.57;2.93;;;23.60;95.20;;;;;;5078000;28;20451;-93
2021/10/25 11:50:37;;;;;;;3.40;2.70;;;23.90;95.40;;;;;;5076785;28;20479;-92
2021/10/25 11:53:06;;;;;;;3.23;2.80;;;24.20;95.40;;;;;;5077251;28;20840;-93
2021/10/25 11:55:37;;;;;;;4.17;2.50;;;24.30;95.40;;;;;;5076926;28;20447;-93
2021/10/25 11:58:06;;;;;;;3.03;2.73;;;24.20;94.20;;;;;;5077346;28;20468;-93
2021/10/25 12:00:35;;;;;;;4.33;2.93;;;24.00;94.30;;;;;;5076997;28;20544;-94
2021/10/25 12:03:10;;;;;;;2.73;2.40;;;24.00;95.30;;;;;;5078352;28;20527;-93
2021/10/25 12:05:38;;;;;;;3.63;2.70;;;24.00;95.20;;;;;;5077489;28;20498;-95
2021/10/25 12:08:08;;;;;;;3.50;2.87;;;23.80;93.30;;;;;;5077103;28;20542;-92
2021/10/25 12:10:37;;;;;;;3.87;3.50;;;23.60;93.90;;;;;;5078847;28;20536;-92
2021/10/25 12:13:07;;;;;;;3.70;3.40;;;23.60;95.40;;;;;;5079720;28;20534;-93
2021/10/25 12:15:36;;;;;;;3.10;2.80;;;23.50;95.60;;;;;;5078959;28;20451;-93
2021/10/25 12:18:05;;;;;;;3.03;2.73;;;23.30;93.80;;;;;;5077785;28;20504;-93
2021/10/25 12:20:35;;;;;;;3.10;2.90;;;23.00;93.70;;;;;;5078401;28;21065;-94
2021/10/25 12:23:04;;;;;;;2.93;2.73;;;22.50;94.80;;;;;;5079457;28;20473;-93
2021/10/25 12:25:37;;;;;;;3.83;3.53;;;22.00;95.70;;;;;;5081232;28;20466;-94
2021/10/25 12:28:19;;;;;;;3.33;3.03;;;21.70;96.10;;;;;;5084081;28;20513;-93
2021/10/25 12:30:50;;;;;;;5.07;3.30;;;21.50;96.40;;;;;;5079807;28;20474;-93
2021/10/25 12:33:20;;;;;;;3.23;2.90;;;21.40;95.40;;;;;;5079490;28;20950;-93
2021/10/25 12:35:49;;;;;;;3.63;3.30;;;21.10;96.20;;;;;;5069959;28;20944;-93
2021/10/25 12:38:18;;;;;;;3.40;3.10;;;20.80;96.40;;;;;;5065204;28;20466;-91
2021/10/25 12:40:47;;;;;;;3.13;2.83;;;20.50;96.70;;;;;;5066125;28;20863;-92
2021/10/25 12:43:17;;;;;;;4.60;2.80;;;20.40;96.50;;;;;;5063171;28;20466;-92
2021/10/25 12:45:58;;;;;;;2.80;2.60;;;20.10;97.30;;;;;;5073306;28;20467;-95
2021/10/25 12:48:25;;;;;;;3.03;2.70;;;20.10;97.60;;;;;;5072369;28;20498;-93
2021/10/25 12:51:09;;;;;;;3.03;2.73;;;19.90;97.70;;;;;;5064213;28;20856;-94
2021/10/25 12:53:37;;;;;;;2.53;2.00;;;20.00;98.10;;;;;;5065134;28;20460;-94
2021/10/25 12:56:05;;;;;;;1.90;1.70;;;19.80;95.10;;;;;;5064401;28;20470;-94
2021/10/25 12:58:33;;;;;;;1.80;1.70;;;19.40;92.10;;;;;;5069123;28;20461;-94
2021/10/25 13:01:09;;;;;;;2.90;2.07;;;19.40;93.90;;;;;;5069031;28;20479;-94
2021/10/25 13:03:36;;;;;;;2.30;2.10;;;19.60;95.10;;;;;;5068480;28;20450;-93
2021/10/25 13:06:08;;;;;;;3.97;1.83;;;19.90;95.50;;;;;;5059057;28;20810;-94
2021/10/25 13:08:36;;;;;;;2.13;1.60;;;20.00;93.00;;;;;;5060151;28;20991;-95
2021/10/25 13:11:03;;;;;;;2.30;2.10;;;20.20;93.00;;;;;;5059295;28;20491;-92
2021/10/25 13:13:32;;;;;;;2.37;2.13;;;20.30;93.40;;;;;;5059973;28;20485;-93
2021/10/25 13:16:01;;;;;;;2.10;1.90;;;20.50;93.70;;;;;;5059147;28;20538;-93
2021/10/25 13:18:27;;;;;;;2.50;2.27;;;20.60;94.10;;;;;;5059355;28;20469;-93
2021/10/25 13:20:56;;;;;;;3.03;2.27;;;20.70;93.20;;;;;;5057252;28;20483;-92
2021/10/25 13:23:23;;;;;;;3.07;2.50;;;20.50;93.20;;;;;;5059492;28;20498;-94
2021/10/25 13:25:51;;;;;;;2.73;1.90;;;20.40;93.50;;;;;;5057738;28;20466;-92
2021/10/25 13:28:19;;;;;;;1.90;1.80;;;20.30;93.60;;;;;;5057267;28;20964;-92
2021/10/25 13:30:45;;;;;;;3.30;2.40;;;20.00;92.70;;;;;;5057581;28;20487;-92
2021/10/25 13:33:13;;;;;;;2.80;2.20;;;19.80;92.40;;;;;;5073131;28;20458;-93
2021/10/25 13:35:40;;;;;;;2.10;1.90;;;19.70;92.20;;;;;;5082335;28;20467;-91
2021/10/25 13:38:08;;;;;;;2.80;2.60;;;19.80;92.30;;;;;;5080350;28;20462;-94
2021/10/25 13:40:35;;;;;;;2.20;1.90;;;20.00;92.80;;;;;;5077924;28;20831;-93
2021/10/25 13:43:03;;;;;;;3.10;2.03;;;20.10;92.10;;;;;;5077208;28;20470;-92
2021/10/25 13:45:31;;;;;;;1.90;1.70;;;20.20;92.80;;;;;;5076863;28;20477;-93
2021/10/25 13:47:59;;;;;;;3.60;2.10;;;20.30;93.00;;;;;;5075301;28;20466;-92
2021/10/25 13:50:27;;;;;;;3.00;2.50;;;20.40;93.00;;;;;;5077146;28;20551;-93
2021/10/25 13:52:54;;;;;;;2.30;2.10;;;20.40;92.00;;;;;;5075803;28;20944;-93
2021/10/25 13:55:20;;;;;;;2.30;2.10;;;20.40;92.20;;;;;;5076655;28;20474;-93
2021/10/25 13:57:49;;;;;;;5.17;2.97;;;20.40;92.90;;;;;;5076430;28;20458;-93
2021/10/25 14:00:17;;;;;;;3.40;2.60;;;20.30;92.30;;;;;;5076611;28;20491;-92
2021/10/25 14:02:45;;;;;;;3.53;2.07;;;20.30;93.20;;;;;;5076099;28;20944;-93
2021/10/25 14:05:16;;;;;;;4.00;2.30;;;20.40;93.20;;;;;;5076739;28;20510;-93
2021/10/25 14:07:44;;;;;;;2.37;2.10;;;20.30;93.20;;;;;;5086847;28;20500;-93
2021/10/25 14:10:16;;;;;;;2.97;2.67;;;20.30;93.10;;;;;;5088029;28;20479;-93
2021/10/25 14:12:43;;;;;;;2.43;2.20;;;20.30;94.30;;;;;;5076374;28;20457;-94
2021/10/25 14:15:20;;;;;;;3.27;2.43;;;20.30;94.40;;;;;;5076749;28;20465;-93
2021/10/25 14:17:49;;;;;;;3.03;2.40;;;20.10;94.60;;;;;;5077787;28;20461;-94
2021/10/25 14:20:16;;;;;;;3.10;2.40;;;19.80;94.80;;;;;;5078168;28;20489;-93